createdAt,value
2023-05-18T00:00:11.097Z,10.20
2023-05-18T00:02:39.278Z,10.30
2023-05-18T00:05:08.913Z,10.30
2023-05-18T00:07:37.463Z,10.40
2023-05-18T00:10:06.213Z,10.40
2023-05-18T00:12:34.302Z,10.40
2023-05-18T00:15:02.378Z,10.40
2023-05-18T00:17:32.326Z,10.40
2023-05-18T00:20:01.017Z,10.40
2023-05-18T00:22:30.086Z,10.30
2023-05-18T00:24:58.157Z,10.30
2023-05-18T00:27:26.147Z,10.20
2023-05-18T00:29:54.403Z,10.20
2023-05-18T00:32:22.406Z,10.20
2023-05-18T00:34:51.827Z,10.10
2023-05-18T00:37:19.850Z,10.10
2023-05-18T00:39:47.932Z,10.10
2023-05-18T00:42:16.104Z,10.10
2023-05-18T00:44:44.133Z,10.10
2023-05-18T00:47:12.305Z,10.00
2023-05-18T00:49:40.422Z,10.00
2023-05-18T00:52:09.972Z,10.00
2023-05-18T00:54:38.042Z,10.10
2023-05-18T00:57:07.434Z,10.10
2023-05-18T00:59:35.525Z,10.20
2023-05-18T01:02:04.280Z,10.10
2023-05-18T01:04:32.830Z,10.20
2023-05-18T01:07:06.971Z,10.30
2023-05-18T01:09:36.699Z,10.30
2023-05-18T01:12:13.411Z,10.20
2023-05-18T01:14:50.041Z,10.20
2023-05-18T01:17:26.998Z,10.20
2023-05-18T01:20:18.748Z,10.20
2023-05-18T01:23:12.455Z,10.20
2023-05-18T01:25:51.239Z,10.20
2023-05-18T01:28:26.679Z,10.20
2023-05-18T01:30:55.958Z,10.20
2023-05-18T01:33:24.701Z,10.20
2023-05-18T01:35:53.504Z,10.20
2023-05-18T01:38:23.819Z,10.20
2023-05-18T01:40:59.044Z,10.20
2023-05-18T01:43:33.529Z,10.20
2023-05-18T01:46:09.475Z,10.20
2023-05-18T01:48:39.967Z,10.20
2023-05-18T01:51:11.799Z,10.10
2023-05-18T01:53:44.691Z,10.10
2023-05-18T01:56:15.469Z,10.00
2023-05-18T01:58:45.649Z,10.00
2023-05-18T02:01:13.848Z,10.00
2023-05-18T02:03:41.997Z,10.00
2023-05-18T02:06:10.125Z,10.00
2023-05-18T02:08:38.983Z,10.10
2023-05-18T02:11:07.013Z,10.00
2023-05-18T02:13:35.009Z,10.00
2023-05-18T02:16:06.223Z,10.00
2023-05-18T02:18:36.629Z,10.00
2023-05-18T02:21:05.180Z,9.90
2023-05-18T02:23:33.978Z,10.00
2023-05-18T02:26:02.575Z,10.00
2023-05-18T02:28:30.739Z,10.00
2023-05-18T02:31:08.053Z,10.00
2023-05-18T02:33:40.116Z,10.10
2023-05-18T02:36:12.392Z,10.00
2023-05-18T02:38:42.293Z,10.10
2023-05-18T02:41:10.914Z,10.10
2023-05-18T02:43:38.881Z,10.00
2023-05-18T02:46:08.355Z,9.90
2023-05-18T02:48:36.495Z,9.90
2023-05-18T02:51:04.653Z,9.90
2023-05-18T02:53:32.651Z,9.80
2023-05-18T02:56:03.531Z,9.80
2023-05-18T02:58:31.716Z,9.70
2023-05-18T03:01:00.956Z,9.80
2023-05-18T03:03:30.675Z,10.10
2023-05-18T03:05:58.764Z,9.80
2023-05-18T03:08:26.961Z,9.90
2023-05-18T03:10:55.159Z,9.90
2023-05-18T03:13:23.177Z,9.90
2023-05-18T03:15:51.926Z,9.80
2023-05-18T03:18:20.223Z,9.80
2023-05-18T03:20:52.263Z,9.80
2023-05-18T03:23:20.886Z,9.80
2023-05-18T03:25:54.509Z,9.70
2023-05-18T03:28:22.650Z,9.70
2023-05-18T03:30:50.752Z,9.80
2023-05-18T03:33:18.788Z,9.80
2023-05-18T03:35:48.631Z,9.70
2023-05-18T03:38:18.673Z,9.80
2023-05-18T03:40:46.730Z,9.80
2023-05-18T03:43:14.784Z,9.80
2023-05-18T03:45:42.882Z,9.80
2023-05-18T03:48:11.214Z,9.80
2023-05-18T03:50:39.236Z,9.90
2023-05-18T03:53:07.280Z,9.90
2023-05-18T03:55:36.724Z,9.90
2023-05-18T03:58:04.875Z,9.90
2023-05-18T04:00:32.890Z,9.70
2023-05-18T04:03:03.359Z,9.70
2023-05-18T04:05:31.776Z,9.90
2023-05-18T04:08:00.151Z,9.90
2023-05-18T04:10:28.197Z,10.00
2023-05-18T04:12:57.583Z,10.00
2023-05-18T04:15:25.703Z,10.00
2023-05-18T04:17:53.948Z,10.00
2023-05-18T04:20:22.193Z,9.90
2023-05-18T04:22:50.220Z,9.90
2023-05-18T04:25:18.768Z,9.90
2023-05-18T04:27:49.001Z,10.00
2023-05-18T04:30:22.578Z,10.00
2023-05-18T04:32:51.181Z,10.20
2023-05-18T04:35:19.862Z,10.20
2023-05-18T04:37:47.879Z,10.30
2023-05-18T04:40:17.451Z,10.30
2023-05-18T04:42:47.743Z,10.30
2023-05-18T04:45:17.696Z,10.40
2023-05-18T04:47:48.245Z,10.30
2023-05-18T04:50:17.117Z,10.30
2023-05-18T04:52:48.637Z,10.10
2023-05-18T04:55:23.010Z,10.20
2023-05-18T04:57:53.955Z,10.30
2023-05-18T05:00:22.428Z,10.30
2023-05-18T05:02:52.132Z,10.40
2023-05-18T05:05:20.721Z,10.40
2023-05-18T05:07:50.140Z,10.50
2023-05-18T05:10:18.846Z,10.60
2023-05-18T05:12:49.320Z,10.60
2023-05-18T05:15:17.750Z,10.70
2023-05-18T05:17:47.362Z,10.70
2023-05-18T05:20:17.177Z,10.80
2023-05-18T05:22:45.220Z,10.80
2023-05-18T05:25:13.389Z,11.00
2023-05-18T05:27:41.471Z,11.00
2023-05-18T05:30:10.474Z,10.90
2023-05-18T05:32:38.586Z,10.90
2023-05-18T05:35:07.457Z,10.80
2023-05-18T05:37:36.834Z,10.90
2023-05-18T05:40:06.450Z,11.00
2023-05-18T05:42:34.799Z,11.00
2023-05-18T05:45:02.834Z,11.00
2023-05-18T05:47:31.005Z,10.80
2023-05-18T05:49:59.033Z,10.70
2023-05-18T05:52:28.772Z,10.50
2023-05-18T05:54:58.897Z,10.50
2023-05-18T05:57:26.924Z,10.50
2023-05-18T05:59:54.947Z,10.70
2023-05-18T06:02:23.063Z,10.90
2023-05-18T06:04:51.153Z,10.70
2023-05-18T06:07:19.183Z,10.40
2023-05-18T06:09:47.188Z,10.30
2023-05-18T06:12:16.522Z,10.30
2023-05-18T06:14:44.971Z,10.20
2023-05-18T06:17:13.049Z,10.40
2023-05-18T06:19:41.165Z,10.50
2023-05-18T06:22:09.175Z,10.60
2023-05-18T06:24:37.203Z,10.60
2023-05-18T06:27:05.933Z,10.70
2023-05-18T06:29:35.319Z,10.70
2023-05-18T06:32:03.572Z,10.70
2023-05-18T06:34:31.849Z,10.90
2023-05-18T06:37:00.153Z,10.90
2023-05-18T06:39:28.521Z,11.00
2023-05-18T06:41:56.563Z,11.10
2023-05-18T06:44:24.896Z,11.20
2023-05-18T06:46:54.280Z,11.00
2023-05-18T06:49:22.354Z,11.00
2023-05-18T06:51:50.692Z,11.40
2023-05-18T06:54:18.914Z,11.60
2023-05-18T06:56:47.524Z,11.80
2023-05-18T06:59:15.838Z,11.90
2023-05-18T07:01:43.955Z,11.90
2023-05-18T07:04:13.546Z,12.00
2023-05-18T07:06:41.755Z,12.20
2023-05-18T07:09:09.841Z,12.40
2023-05-18T07:11:37.869Z,12.40
2023-05-18T07:14:06.110Z,11.90
2023-05-18T07:16:34.301Z,11.80
2023-05-18T07:19:02.894Z,12.30
2023-05-18T07:21:32.905Z,12.50
2023-05-18T07:24:01.469Z,12.80
2023-05-18T07:26:29.811Z,12.90
2023-05-18T07:28:58.062Z,13.00
2023-05-18T07:31:26.180Z,13.00
2023-05-18T07:33:54.337Z,12.90
2023-05-18T07:36:22.398Z,12.80
2023-05-18T07:38:55.004Z,12.90
2023-05-18T07:41:23.678Z,12.90
2023-05-18T07:43:53.062Z,12.90
2023-05-18T07:46:21.554Z,12.80
2023-05-18T07:48:49.804Z,13.00
2023-05-18T07:51:18.214Z,13.10
2023-05-18T07:53:47.461Z,13.20
2023-05-18T07:56:16.877Z,12.70
2023-05-18T07:58:45.408Z,12.70
2023-05-18T08:01:13.563Z,12.10
2023-05-18T08:03:42.019Z,12.10
2023-05-18T08:06:10.229Z,12.10
2023-05-18T08:08:38.324Z,12.40
2023-05-18T08:11:06.776Z,12.50
2023-05-18T08:13:36.197Z,12.80
2023-05-18T08:18:38.363Z,12.50
2023-05-18T08:21:08.249Z,12.20
2023-05-18T08:23:36.549Z,12.20
2023-05-18T08:26:05.190Z,12.30
2023-05-18T08:28:33.343Z,12.00
2023-05-18T08:31:02.812Z,12.10
2023-05-18T08:33:32.608Z,12.10
2023-05-18T08:36:00.783Z,12.00
2023-05-18T08:38:28.812Z,12.10
2023-05-18T08:41:03.811Z,12.50
2023-05-18T08:43:34.042Z,12.30
2023-05-18T08:46:08.573Z,12.30
2023-05-18T08:48:38.514Z,12.40
2023-05-18T08:51:09.619Z,12.50
2023-05-18T08:53:40.140Z,12.90
2023-05-18T08:56:09.768Z,12.80
2023-05-18T08:58:43.441Z,13.10
2023-05-18T09:01:13.365Z,12.80
2023-05-18T09:03:42.976Z,12.60
2023-05-18T09:06:11.529Z,12.70
2023-05-18T09:08:39.887Z,12.90
2023-05-18T09:11:09.419Z,13.10
2023-05-18T09:13:37.453Z,13.00
2023-05-18T09:16:07.864Z,13.20
2023-05-18T09:18:37.666Z,13.40
2023-05-18T09:21:06.260Z,13.60
2023-05-18T09:23:34.825Z,14.00
2023-05-18T09:26:04.890Z,13.60
2023-05-18T09:28:36.600Z,13.50
2023-05-18T09:31:07.445Z,13.90
2023-05-18T09:33:38.684Z,13.90
2023-05-18T09:36:08.137Z,13.70
2023-05-18T09:38:38.471Z,13.20
2023-05-18T09:41:12.714Z,13.10
2023-05-18T09:43:40.968Z,13.40
2023-05-18T09:46:10.302Z,13.30
2023-05-18T09:48:44.026Z,13.10
2023-05-18T09:51:13.836Z,13.00
2023-05-18T09:53:41.980Z,13.40
2023-05-18T09:56:12.548Z,13.50
2023-05-18T09:58:41.077Z,13.50
2023-05-18T10:01:09.127Z,13.40
2023-05-18T10:03:40.538Z,13.00
2023-05-18T10:06:10.038Z,13.00
2023-05-18T10:08:39.037Z,13.10
2023-05-18T10:11:07.438Z,13.30
2023-05-18T10:13:36.075Z,13.00
2023-05-18T10:16:06.315Z,13.00
2023-05-18T10:18:36.669Z,13.10
2023-05-18T10:21:08.106Z,13.30
2023-05-18T10:23:38.168Z,13.60
2023-05-18T10:26:09.886Z,13.20
2023-05-18T10:28:43.314Z,13.20
2023-05-18T10:31:11.528Z,12.80
2023-05-18T10:33:39.849Z,12.80
2023-05-18T10:36:11.524Z,12.80
2023-05-18T10:38:40.663Z,13.00
2023-05-18T10:41:10.939Z,13.00
2023-05-18T10:43:39.465Z,13.00
2023-05-18T10:46:08.742Z,12.80
2023-05-18T10:48:40.146Z,12.60
2023-05-18T10:51:09.972Z,12.90
2023-05-18T10:53:39.095Z,13.10
2023-05-18T10:56:07.958Z,13.30
2023-05-18T10:58:38.441Z,13.40
2023-05-18T11:01:10.294Z,13.60
2023-05-18T11:03:41.215Z,13.20
2023-05-18T11:06:12.500Z,13.30
2023-05-18T11:08:45.616Z,13.50
2023-05-18T11:11:14.557Z,13.40
2023-05-18T11:13:46.282Z,13.10
2023-05-18T11:16:15.839Z,13.00
2023-05-18T11:18:46.397Z,13.10
2023-05-18T11:21:30.111Z,13.30
2023-05-18T11:24:18.728Z,13.40
2023-05-18T11:26:48.192Z,13.30
2023-05-18T11:29:20.877Z,13.30
2023-05-18T11:31:50.752Z,13.30
2023-05-18T11:34:39.657Z,13.30
2023-05-18T11:37:10.661Z,13.50
2023-05-18T11:39:47.808Z,13.60
2023-05-18T11:42:21.083Z,13.60
2023-05-18T11:44:55.689Z,13.60
2023-05-18T11:47:30.658Z,13.30
2023-05-18T11:49:59.165Z,13.00
2023-05-18T11:52:28.581Z,12.90
2023-05-18T11:54:57.845Z,13.20
2023-05-18T11:57:27.335Z,13.00
2023-05-18T11:59:59.199Z,13.10
2023-05-18T12:02:29.470Z,13.20
2023-05-18T12:05:00.304Z,13.00
2023-05-18T12:07:32.218Z,13.10
2023-05-18T12:10:01.657Z,13.30
2023-05-18T12:12:29.953Z,13.30
2023-05-18T12:15:01.147Z,13.20
2023-05-18T12:17:40.310Z,13.30
2023-05-18T12:20:11.373Z,13.20
2023-05-18T12:22:41.738Z,13.30
2023-05-18T12:25:10.777Z,13.00
2023-05-18T12:27:40.689Z,12.90
2023-05-18T12:30:13.892Z,13.00
2023-05-18T12:32:47.086Z,13.20
2023-05-18T12:35:15.237Z,13.00
2023-05-18T12:37:46.025Z,12.90
2023-05-18T12:40:15.756Z,12.50
2023-05-18T12:42:53.792Z,12.20
2023-05-18T12:45:24.799Z,12.30
2023-05-18T12:47:54.637Z,12.60
2023-05-18T12:50:24.916Z,12.70
2023-05-18T12:52:56.216Z,12.80
2023-05-18T12:55:25.394Z,12.60
2023-05-18T12:58:01.703Z,12.60
2023-05-18T13:00:33.806Z,12.60
2023-05-18T13:03:08.207Z,12.40
2023-05-18T13:05:37.716Z,12.50
2023-05-18T13:08:07.293Z,12.50
2023-05-18T13:10:36.029Z,12.70
2023-05-18T13:13:04.573Z,12.70
2023-05-18T13:15:37.622Z,12.60
2023-05-18T13:18:10.092Z,12.20
2023-05-18T13:20:43.083Z,12.20
2023-05-18T13:23:14.809Z,12.30
2023-05-18T13:25:43.485Z,12.50
2023-05-18T13:28:13.321Z,12.60
2023-05-18T13:30:42.518Z,12.50
2023-05-18T13:33:10.856Z,12.70
2023-05-18T13:35:40.612Z,12.50
2023-05-18T13:38:08.799Z,12.60
2023-05-18T13:40:38.774Z,13.00
2023-05-18T13:43:07.103Z,13.00
2023-05-18T13:45:36.707Z,12.90
2023-05-18T13:48:09.526Z,12.80
2023-05-18T13:50:38.600Z,12.60
2023-05-18T13:53:06.898Z,12.60
2023-05-18T13:55:35.482Z,12.40
2023-05-18T13:58:05.038Z,12.40
2023-05-18T14:00:33.985Z,12.50
2023-05-18T14:03:02.773Z,12.50
2023-05-18T14:05:30.909Z,12.80
2023-05-18T14:07:58.954Z,12.80
2023-05-18T14:10:27.144Z,12.60
2023-05-18T14:12:55.125Z,12.70
2023-05-18T14:15:24.497Z,12.60
2023-05-18T14:17:52.867Z,12.20
2023-05-18T14:20:21.005Z,12.00
2023-05-18T14:22:49.105Z,12.10
2023-05-18T14:25:17.244Z,12.20
2023-05-18T14:27:45.980Z,12.50
2023-05-18T14:30:14.307Z,12.50
2023-05-18T14:32:43.702Z,12.60
2023-05-18T14:35:12.387Z,12.60
2023-05-18T14:37:40.459Z,12.60
2023-05-18T14:40:09.725Z,12.60
2023-05-18T14:42:37.732Z,12.60
2023-05-18T14:45:06.345Z,12.80
2023-05-18T14:47:34.420Z,12.90
2023-05-18T14:50:03.908Z,12.70
2023-05-18T14:52:31.964Z,12.40
2023-05-18T14:54:59.967Z,12.50
2023-05-18T14:57:28.035Z,12.50
2023-05-18T14:59:56.220Z,12.30
2023-05-18T15:02:24.281Z,12.40
2023-05-18T15:04:52.319Z,12.00
2023-05-18T15:07:21.764Z,12.00
2023-05-18T15:09:49.772Z,12.00
2023-05-18T15:12:19.599Z,12.20
2023-05-18T15:14:47.620Z,12.30
2023-05-18T15:17:15.666Z,12.10
2023-05-18T15:19:43.629Z,12.30
2023-05-18T15:22:11.629Z,12.40
2023-05-18T15:24:41.516Z,12.10
2023-05-18T15:27:10.552Z,11.70
2023-05-18T15:29:38.755Z,11.30
2023-05-18T15:32:07.765Z,11.40
2023-05-18T15:34:36.002Z,11.60
2023-05-18T15:37:04.084Z,11.50
2023-05-18T15:39:32.265Z,11.50
2023-05-18T15:42:01.647Z,11.60
2023-05-18T15:44:29.921Z,11.90
2023-05-18T15:46:58.241Z,11.80
2023-05-18T15:49:26.299Z,11.80
2023-05-18T15:51:54.373Z,11.90
2023-05-18T15:54:22.366Z,11.90
2023-05-18T15:56:51.103Z,11.70
2023-05-18T15:59:20.564Z,11.70
2023-05-18T16:01:48.763Z,11.70
2023-05-18T16:04:16.906Z,11.70
2023-05-18T16:06:44.923Z,11.50
2023-05-18T16:09:13.116Z,11.60
2023-05-18T16:11:41.118Z,11.50
2023-05-18T16:14:09.098Z,11.50
2023-05-18T16:16:38.622Z,11.50
2023-05-18T16:19:07.420Z,11.50
2023-05-18T16:21:35.529Z,11.40
2023-05-18T16:24:03.593Z,11.30
2023-05-18T16:26:31.714Z,11.20
2023-05-18T16:28:59.727Z,11.30
2023-05-18T16:31:27.795Z,11.30
2023-05-18T16:33:57.524Z,11.50
2023-05-18T16:36:26.201Z,11.50
2023-05-18T16:38:54.469Z,11.10
2023-05-18T16:41:22.453Z,11.00
2023-05-18T16:43:50.643Z,10.80
2023-05-18T16:46:20.010Z,10.70
2023-05-18T16:48:48.240Z,10.70
2023-05-18T16:51:17.660Z,10.70
2023-05-18T16:53:45.671Z,10.80
2023-05-18T16:56:14.077Z,10.80
2023-05-18T16:58:42.076Z,10.80
2023-05-18T17:01:23.592Z,11.00
2023-05-18T17:03:56.092Z,10.90
2023-05-18T17:06:25.808Z,11.00
2023-05-18T17:08:57.965Z,11.00
2023-05-18T17:11:26.927Z,11.00
2023-05-18T17:13:55.273Z,11.10
2023-05-18T17:16:23.553Z,11.10
2023-05-18T17:18:53.433Z,11.20
2023-05-18T17:21:23.758Z,11.30
2023-05-18T17:23:53.154Z,11.30
2023-05-18T17:26:21.513Z,11.30
2023-05-18T17:28:49.557Z,11.30
2023-05-18T17:31:17.891Z,11.30
2023-05-18T17:33:47.411Z,11.20
2023-05-18T17:36:17.160Z,11.00
2023-05-18T17:38:45.294Z,11.00
2023-05-18T17:41:14.677Z,10.90
2023-05-18T17:43:42.817Z,10.70
2023-05-18T17:46:10.820Z,10.50
2023-05-18T17:48:38.869Z,10.40
2023-05-18T17:51:07.482Z,10.50
2023-05-18T17:53:35.647Z,10.50
2023-05-18T17:56:03.970Z,10.50
2023-05-18T17:58:33.323Z,10.60
2023-05-18T18:01:01.414Z,10.50
2023-05-18T18:03:29.484Z,10.40
2023-05-18T18:05:57.660Z,10.40
2023-05-18T18:08:28.317Z,10.50
2023-05-18T18:10:56.408Z,10.50
2023-05-18T18:13:24.727Z,10.50
2023-05-18T18:15:54.235Z,10.50
2023-05-18T18:18:23.388Z,10.40
2023-05-18T18:20:51.805Z,10.50
2023-05-18T18:23:19.811Z,10.40
2023-05-18T18:25:48.027Z,10.40
2023-05-18T18:28:16.097Z,10.30
2023-05-18T18:30:44.863Z,10.20
2023-05-18T18:33:15.245Z,10.20
2023-05-18T18:35:43.902Z,10.10
2023-05-18T18:38:12.894Z,10.20
2023-05-18T18:40:40.961Z,10.20
2023-05-18T18:43:09.007Z,10.20
2023-05-18T18:45:37.246Z,10.40
2023-05-18T18:48:06.163Z,10.40
2023-05-18T18:50:35.658Z,10.40
2023-05-18T18:53:03.665Z,10.40
2023-05-18T18:55:32.011Z,10.50
2023-05-18T18:58:01.421Z,10.50
2023-05-18T19:00:29.605Z,10.40
2023-05-18T19:02:57.676Z,10.40
2023-05-18T19:05:25.955Z,10.40
2023-05-18T19:07:55.958Z,10.40
2023-05-18T19:10:25.527Z,10.30
2023-05-18T19:12:54.202Z,10.40
2023-05-18T19:15:22.354Z,10.30
2023-05-18T19:17:52.200Z,10.30
2023-05-18T19:20:20.910Z,10.40
2023-05-18T19:22:48.951Z,10.30
2023-05-18T19:25:18.436Z,10.30
2023-05-18T19:27:46.570Z,10.30
2023-05-18T19:30:16.792Z,10.40
2023-05-18T19:32:44.803Z,10.40
2023-05-18T19:35:12.842Z,10.40
2023-05-18T19:37:40.962Z,10.60
2023-05-18T19:40:09.718Z,10.60
2023-05-18T19:42:39.092Z,10.60
2023-05-18T19:45:07.760Z,10.40
2023-05-18T19:47:35.938Z,10.30
2023-05-18T19:50:04.644Z,10.30
2023-05-18T19:52:33.615Z,10.30
2023-05-18T19:55:01.926Z,10.20
2023-05-18T19:57:30.165Z,10.20
2023-05-18T19:59:59.588Z,10.30
2023-05-18T20:02:27.581Z,10.10
2023-05-18T20:04:55.725Z,10.20
2023-05-18T20:07:23.984Z,10.30
2023-05-18T20:09:53.174Z,10.30
2023-05-18T20:12:21.375Z,10.30
2023-05-18T20:14:49.421Z,10.20
2023-05-18T20:17:19.286Z,10.20
2023-05-18T20:19:50.887Z,10.20
2023-05-18T20:22:19.248Z,10.20
2023-05-18T20:24:47.274Z,10.10
2023-05-18T20:27:16.374Z,10.20
2023-05-18T20:29:44.415Z,10.30
2023-05-18T20:32:12.440Z,10.30
2023-05-18T20:34:44.461Z,10.30
2023-05-18T20:37:13.900Z,10.30
2023-05-18T20:39:50.524Z,10.40
2023-05-18T20:42:21.860Z,10.40
2023-05-18T20:44:50.866Z,10.30
2023-05-18T20:47:20.486Z,10.40
2023-05-18T20:49:50.405Z,10.30
2023-05-18T20:52:18.440Z,10.30
2023-05-18T20:54:47.307Z,10.30
2023-05-18T20:57:15.521Z,10.30
2023-05-18T20:59:43.637Z,10.10
2023-05-18T21:02:11.936Z,10.10
2023-05-18T21:04:39.984Z,10.00
2023-05-18T21:07:09.990Z,10.00
2023-05-18T21:09:38.109Z,10.00
2023-05-18T21:12:06.977Z,10.10
2023-05-18T21:14:35.073Z,10.10
2023-05-18T21:17:03.049Z,10.10
2023-05-18T21:19:31.098Z,10.20
2023-05-18T21:21:59.120Z,10.20
2023-05-18T21:24:28.678Z,10.10
2023-05-18T21:26:56.950Z,10.00
2023-05-18T21:29:24.943Z,10.00
2023-05-18T21:31:53.123Z,10.00
2023-05-18T21:34:21.173Z,10.10
2023-05-18T21:36:49.338Z,10.10
2023-05-18T21:39:17.350Z,10.10
2023-05-18T21:41:46.711Z,10.20
2023-05-18T21:44:14.881Z,10.20
2023-05-18T21:46:44.005Z,10.10
2023-05-18T21:49:12.574Z,10.00
2023-05-18T21:51:40.590Z,9.90
2023-05-18T21:54:08.612Z,9.90
2023-05-18T21:56:36.922Z,9.90
2023-05-18T21:59:06.418Z,9.90
2023-05-18T22:01:34.547Z,9.90
2023-05-18T22:04:02.712Z,9.80
2023-05-18T22:06:31.206Z,9.90
2023-05-18T22:08:59.225Z,9.80
2023-05-18T22:11:27.364Z,9.80
2023-05-18T22:13:55.547Z,9.80
2023-05-18T22:16:25.005Z,9.80
2023-05-18T22:18:53.066Z,9.60
2023-05-18T22:21:21.128Z,9.70
2023-05-18T22:23:49.164Z,9.50
2023-05-18T22:26:17.258Z,9.60
2023-05-18T22:28:45.239Z,9.50
2023-05-18T22:31:13.279Z,9.50
2023-05-18T22:33:42.668Z,9.50
2023-05-18T22:36:10.866Z,9.60
2023-05-18T22:38:43.124Z,9.70
2023-05-18T22:41:11.228Z,9.70
2023-05-18T22:43:39.310Z,9.70
2023-05-18T22:46:07.886Z,9.60
2023-05-18T22:48:36.139Z,9.60
2023-05-18T22:51:06.431Z,9.50
2023-05-18T22:53:34.513Z,9.60
2023-05-18T22:56:02.981Z,9.50
2023-05-18T22:58:30.952Z,9.50
2023-05-18T23:00:58.963Z,9.50
2023-05-18T23:03:26.964Z,9.50
2023-05-18T23:05:54.977Z,9.60
2023-05-18T23:08:24.698Z,9.60
2023-05-18T23:10:54.435Z,9.70
2023-05-18T23:13:22.818Z,9.50
2023-05-18T23:15:50.910Z,9.40
2023-05-18T23:18:18.902Z,9.30
2023-05-18T23:20:46.896Z,9.30
2023-05-18T23:23:14.881Z,9.30
2023-05-18T23:25:44.226Z,9.30
2023-05-18T23:28:12.218Z,9.30
2023-05-18T23:30:40.451Z,9.30
2023-05-18T23:33:09.038Z,9.30
2023-05-18T23:35:39.076Z,9.30
2023-05-18T23:38:10.591Z,9.40
2023-05-18T23:40:38.965Z,9.40
2023-05-18T23:43:08.979Z,9.50
2023-05-18T23:45:37.580Z,9.50
2023-05-18T23:48:06.353Z,9.60
2023-05-18T23:50:35.034Z,9.60
2023-05-18T23:53:05.238Z,9.50
2023-05-18T23:55:35.439Z,9.60
2023-05-18T23:58:03.720Z,9.50
